sensor_id;sensor_type;location;lat;lon;timestamp;temperature;humidity
32749;DHT22;19119;52.474;13.710;2023-09-12T00:01:05;16.80;99.90
32749;DHT22;19119;52.474;13.710;2023-09-12T00:03:31;16.80;99.90
32749;DHT22;19119;52.474;13.710;2023-09-12T00:05:59;16.70;99.90
32749;DHT22;19119;52.474;13.710;2023-09-12T00:08:25;16.70;99.90
32749;DHT22;19119;52.474;13.710;2023-09-12T00:11:08;16.70;99.90
32749;DHT22;19119;52.474;13.710;2023-09-12T00:13:38;16.70;99.90
32749;DHT22;19119;52.474;13.710;2023-09-12T00:16:04;16.70;99.90
32749;DHT22;19119;52.474;13.710;2023-09-12T00:18:32;16.60;99.90
32749;DHT22;19119;52.474;13.710;2023-09-12T00:21:00;16.60;99.90
32749;DHT22;19119;52.474;13.710;2023-09-12T00:23:26;16.60;99.90
32749;DHT22;19119;52.474;13.710;2023-09-12T00:25:52;16.60;99.90
32749;DHT22;19119;52.474;13.710;2023-09-12T00:28:18;16.60;99.90
32749;DHT22;19119;52.474;13.710;2023-09-12T00:30:44;16.60;99.90
32749;DHT22;19119;52.474;13.710;2023-09-12T00:33:11;16.60;99.90
32749;DHT22;19119;52.474;13.710;2023-09-12T00:35:37;16.60;99.90
32749;DHT22;19119;52.474;13.710;2023-09-12T00:38:02;16.50;99.90
32749;DHT22;19119;52.474;13.710;2023-09-12T00:40:28;16.50;99.90
32749;DHT22;19119;52.474;13.710;2023-09-12T00:42:54;16.40;99.90
32749;DHT22;19119;52.474;13.710;2023-09-12T00:45:19;16.50;99.90
32749;DHT22;19119;52.474;13.710;2023-09-12T00:47:47;16.40;99.90
32749;DHT22;19119;52.474;13.710;2023-09-12T00:50:13;16.40;99.90
32749;DHT22;19119;52.474;13.710;2023-09-12T00:53:07;16.40;99.90
32749;DHT22;19119;52.474;13.710;2023-09-12T00:55:34;16.40;99.90
32749;DHT22;19119;52.474;13.710;2023-09-12T00:58:02;16.40;99.90
32749;DHT22;19119;52.474;13.710;2023-09-12T01:00:28;16.40;99.90
32749;DHT22;19119;52.474;13.710;2023-09-12T01:02:53;16.20;99.90
32749;DHT22;19119;52.474;13.710;2023-09-12T02:09:21;15.70;99.90
32749;DHT22;19119;52.474;13.710;2023-09-12T02:11:48;15.70;99.90
32749;DHT22;19119;52.474;13.710;2023-09-12T02:14:14;15.80;99.90
32749;DHT22;19119;52.474;13.710;2023-09-12T02:16:40;15.70;99.90
32749;DHT22;19119;52.474;13.710;2023-09-12T02:19:06;15.80;99.90
32749;DHT22;19119;52.474;13.710;2023-09-12T02:21:31;15.70;99.90
32749;DHT22;19119;52.474;13.710;2023-09-12T02:23:57;15.70;99.90
32749;DHT22;19119;52.474;13.710;2023-09-12T02:26:22;15.70;99.90
32749;DHT22;19119;52.474;13.710;2023-09-12T02:28:48;15.50;99.90
32749;DHT22;19119;52.474;13.710;2023-09-12T02:31:13;15.50;99.90
32749;DHT22;19119;52.474;13.710;2023-09-12T02:33:39;15.70;99.90
32749;DHT22;19119;52.474;13.710;2023-09-12T02:36:05;15.50;99.90
32749;DHT22;19119;52.474;13.710;2023-09-12T02:38:31;15.50;99.90
32749;DHT22;19119;52.474;13.710;2023-09-12T02:40:59;15.60;99.90
32749;DHT22;19119;52.474;13.710;2023-09-12T02:43:24;15.50;99.90
32749;DHT22;19119;52.474;13.710;2023-09-12T02:45:50;15.40;99.90
32749;DHT22;19119;52.474;13.710;2023-09-12T02:48:15;15.50;99.90
32749;DHT22;19119;52.474;13.710;2023-09-12T02:50:41;15.40;99.90
32749;DHT22;19119;52.474;13.710;2023-09-12T02:53:06;15.40;99.90
32749;DHT22;19119;52.474;13.710;2023-09-12T02:55:32;15.20;99.90
32749;DHT22;19119;52.474;13.710;2023-09-12T02:57:58;15.30;99.90
32749;DHT22;19119;52.474;13.710;2023-09-12T03:00:23;15.20;99.90
32749;DHT22;19119;52.474;13.710;2023-09-12T03:02:49;15.30;99.90
32749;DHT22;19119;52.474;13.710;2023-09-12T03:05:14;15.20;99.90
32749;DHT22;19119;52.474;13.710;2023-09-12T03:07:42;15.30;99.90
32749;DHT22;19119;52.474;13.710;2023-09-12T03:10:08;15.30;99.90
32749;DHT22;19119;52.474;13.710;2023-09-12T03:12:35;15.30;99.90
32749;DHT22;19119;52.474;13.710;2023-09-12T03:15:02;15.40;99.90
32749;DHT22;19119;52.474;13.710;2023-09-12T03:17:28;15.30;99.90
32749;DHT22;19119;52.474;13.710;2023-09-12T03:19:54;15.30;99.90
32749;DHT22;19119;52.474;13.710;2023-09-12T03:22:19;15.30;99.90
32749;DHT22;19119;52.474;13.710;2023-09-12T03:24:45;15.10;99.90
32749;DHT22;19119;52.474;13.710;2023-09-12T03:27:10;15.10;99.90
32749;DHT22;19119;52.474;13.710;2023-09-12T03:29:36;15.20;99.90
32749;DHT22;19119;52.474;13.710;2023-09-12T03:32:01;15.10;99.90
32749;DHT22;19119;52.474;13.710;2023-09-12T03:34:26;15.20;99.90
32749;DHT22;19119;52.474;13.710;2023-09-12T03:36:52;15.20;99.90
32749;DHT22;19119;52.474;13.710;2023-09-12T03:39:17;15.10;99.90
32749;DHT22;19119;52.474;13.710;2023-09-12T03:41:43;15.10;99.90
32749;DHT22;19119;52.474;13.710;2023-09-12T03:44:08;15.10;99.90
32749;DHT22;19119;52.474;13.710;2023-09-12T03:46:34;15.10;99.90
32749;DHT22;19119;52.474;13.710;2023-09-12T03:48:59;15.00;99.90
32749;DHT22;19119;52.474;13.710;2023-09-12T03:51:25;14.90;99.90
32749;DHT22;19119;52.474;13.710;2023-09-12T03:53:50;15.00;99.90
32749;DHT22;19119;52.474;13.710;2023-09-12T03:56:16;15.00;99.90
32749;DHT22;19119;52.474;13.710;2023-09-12T03:58:45;15.10;99.90
32749;DHT22;19119;52.474;13.710;2023-09-12T04:01:11;15.00;99.90
32749;DHT22;19119;52.474;13.710;2023-09-12T04:03:36;15.00;99.90
32749;DHT22;19119;52.474;13.710;2023-09-12T04:06:02;14.80;99.90
32749;DHT22;19119;52.474;13.710;2023-09-12T04:08:27;14.90;99.90
32749;DHT22;19119;52.474;13.710;2023-09-12T04:10:53;14.90;99.90
32749;DHT22;19119;52.474;13.710;2023-09-12T04:13:18;14.90;99.90
32749;DHT22;19119;52.474;13.710;2023-09-12T04:15:43;14.90;99.90
32749;DHT22;19119;52.474;13.710;2023-09-12T04:18:09;15.00;99.90
32749;DHT22;19119;52.474;13.710;2023-09-12T04:20:34;14.90;99.90
32749;DHT22;19119;52.474;13.710;2023-09-12T04:23:01;14.80;99.90
32749;DHT22;19119;52.474;13.710;2023-09-12T04:25:29;14.90;99.90
32749;DHT22;19119;52.474;13.710;2023-09-12T04:27:55;14.80;99.90
32749;DHT22;19119;52.474;13.710;2023-09-12T04:30:20;14.70;99.90
32749;DHT22;19119;52.474;13.710;2023-09-12T04:32:46;14.70;99.90
32749;DHT22;19119;52.474;13.710;2023-09-12T04:35:11;14.70;99.90
32749;DHT22;19119;52.474;13.710;2023-09-12T04:37:39;14.90;99.90
32749;DHT22;19119;52.474;13.710;2023-09-12T04:40:06;14.80;99.90
32749;DHT22;19119;52.474;13.710;2023-09-12T04:42:32;14.80;99.90
32749;DHT22;19119;52.474;13.710;2023-09-12T04:44:57;14.80;99.90
32749;DHT22;19119;52.474;13.710;2023-09-12T04:47:23;14.80;99.90
32749;DHT22;19119;52.474;13.710;2023-09-12T04:49:48;14.70;99.90
32749;DHT22;19119;52.474;13.710;2023-09-12T04:52:14;14.70;99.90
32749;DHT22;19119;52.474;13.710;2023-09-12T04:54:39;14.80;99.90
32749;DHT22;19119;52.474;13.710;2023-09-12T04:57:05;14.90;99.90
32749;DHT22;19119;52.474;13.710;2023-09-12T04:59:31;14.90;99.90
32749;DHT22;19119;52.474;13.710;2023-09-12T05:01:56;14.90;99.90
32749;DHT22;19119;52.474;13.710;2023-09-12T05:04:22;14.90;99.90
32749;DHT22;19119;52.474;13.710;2023-09-12T05:06:48;15.00;99.90
32749;DHT22;19119;52.474;13.710;2023-09-12T05:09:14;15.10;99.90
32749;DHT22;19119;52.474;13.710;2023-09-12T05:11:39;15.20;99.90
32749;DHT22;19119;52.474;13.710;2023-09-12T05:14:05;15.20;99.90
32749;DHT22;19119;52.474;13.710;2023-09-12T05:16:31;15.30;99.90
32749;DHT22;19119;52.474;13.710;2023-09-12T05:18:58;15.40;99.90
32749;DHT22;19119;52.474;13.710;2023-09-12T05:21:23;15.40;99.90
32749;DHT22;19119;52.474;13.710;2023-09-12T05:23:48;15.60;99.90
32749;DHT22;19119;52.474;13.710;2023-09-12T05:26:14;15.70;99.90
32749;DHT22;19119;52.474;13.710;2023-09-12T05:28:40;15.80;99.90
32749;DHT22;19119;52.474;13.710;2023-09-12T05:31:05;15.90;99.90
32749;DHT22;19119;52.474;13.710;2023-09-12T05:33:31;16.00;99.90
32749;DHT22;19119;52.474;13.710;2023-09-12T05:36:00;16.20;99.90
32749;DHT22;19119;52.474;13.710;2023-09-12T05:38:26;16.30;99.90
32749;DHT22;19119;52.474;13.710;2023-09-12T05:40:51;16.40;99.90
32749;DHT22;19119;52.474;13.710;2023-09-12T05:43:17;16.50;99.90
32749;DHT22;19119;52.474;13.710;2023-09-12T05:45:43;16.60;99.90
32749;DHT22;19119;52.474;13.710;2023-09-12T05:48:08;16.60;99.90
32749;DHT22;19119;52.474;13.710;2023-09-12T05:50:36;16.70;99.90
32749;DHT22;19119;52.474;13.710;2023-09-12T05:53:01;16.90;99.90
32749;DHT22;19119;52.474;13.710;2023-09-12T05:55:27;17.10;99.90
32749;DHT22;19119;52.474;13.710;2023-09-12T05:57:53;17.30;99.90
32749;DHT22;19119;52.474;13.710;2023-09-12T06:00:19;17.30;99.90
32749;DHT22;19119;52.474;13.710;2023-09-12T06:02:46;17.50;99.90
32749;DHT22;19119;52.474;13.710;2023-09-12T06:05:12;17.60;99.90
32749;DHT22;19119;52.474;13.710;2023-09-12T06:07:37;17.90;99.90
32749;DHT22;19119;52.474;13.710;2023-09-12T06:10:04;18.10;99.90
32749;DHT22;19119;52.474;13.710;2023-09-12T06:12:30;18.40;99.90
32749;DHT22;19119;52.474;13.710;2023-09-12T06:14:58;18.70;99.90
32749;DHT22;19119;52.474;13.710;2023-09-12T06:17:24;18.80;99.90
32749;DHT22;19119;52.474;13.710;2023-09-12T06:19:49;19.00;99.90
32749;DHT22;19119;52.474;13.710;2023-09-12T06:22:16;19.20;99.90
32749;DHT22;19119;52.474;13.710;2023-09-12T06:24:43;19.50;99.90
32749;DHT22;19119;52.474;13.710;2023-09-12T06:27:08;19.70;99.90
32749;DHT22;19119;52.474;13.710;2023-09-12T06:29:34;19.90;99.90
32749;DHT22;19119;52.474;13.710;2023-09-12T06:32:00;20.10;99.90
32749;DHT22;19119;52.474;13.710;2023-09-12T06:34:27;20.30;99.90
32749;DHT22;19119;52.474;13.710;2023-09-12T06:36:53;20.40;99.90
32749;DHT22;19119;52.474;13.710;2023-09-12T06:39:18;20.70;99.90
32749;DHT22;19119;52.474;13.710;2023-09-12T06:41:44;20.90;99.90
32749;DHT22;19119;52.474;13.710;2023-09-12T06:44:09;21.00;99.90
32749;DHT22;19119;52.474;13.710;2023-09-12T06:46:35;21.40;99.90
32749;DHT22;19119;52.474;13.710;2023-09-12T06:49:02;21.30;99.90
32749;DHT22;19119;52.474;13.710;2023-09-12T06:51:28;21.60;99.90
32749;DHT22;19119;52.474;13.710;2023-09-12T06:53:53;22.00;99.90
32749;DHT22;19119;52.474;13.710;2023-09-12T06:56:19;22.00;99.90
32749;DHT22;19119;52.474;13.710;2023-09-12T06:58:44;22.20;99.90
32749;DHT22;19119;52.474;13.710;2023-09-12T07:01:11;22.20;99.90
32749;DHT22;19119;52.474;13.710;2023-09-12T07:03:36;22.50;99.90
32749;DHT22;19119;52.474;13.710;2023-09-12T07:06:03;22.60;99.90
32749;DHT22;19119;52.474;13.710;2023-09-12T07:08:32;22.80;99.90
32749;DHT22;19119;52.474;13.710;2023-09-12T07:10:58;22.90;99.90
32749;DHT22;19119;52.474;13.710;2023-09-12T07:13:30;23.30;99.90
32749;DHT22;19119;52.474;13.710;2023-09-12T07:15:56;23.40;99.90
32749;DHT22;19119;52.474;13.710;2023-09-12T07:18:22;23.60;99.90
32749;DHT22;19119;52.474;13.710;2023-09-12T07:20:57;23.90;99.90
32749;DHT22;19119;52.474;13.710;2023-09-12T07:23:23;24.10;99.90
32749;DHT22;19119;52.474;13.710;2023-09-12T07:25:48;24.00;99.90
32749;DHT22;19119;52.474;13.710;2023-09-12T07:28:13;24.20;99.90
32749;DHT22;19119;52.474;13.710;2023-09-12T07:30:40;24.40;99.90
32749;DHT22;19119;52.474;13.710;2023-09-12T07:33:05;24.70;99.90
32749;DHT22;19119;52.474;13.710;2023-09-12T07:35:31;24.90;99.90
32749;DHT22;19119;52.474;13.710;2023-09-12T07:37:57;24.90;99.90
32749;DHT22;19119;52.474;13.710;2023-09-12T07:40:22;25.20;99.90
32749;DHT22;19119;52.474;13.710;2023-09-12T07:42:49;25.30;99.90
32749;DHT22;19119;52.474;13.710;2023-09-12T07:45:15;25.60;99.90
32749;DHT22;19119;52.474;13.710;2023-09-12T07:47:40;25.90;99.10
32749;DHT22;19119;52.474;13.710;2023-09-12T07:50:06;26.10;98.60
32749;DHT22;19119;52.474;13.710;2023-09-12T07:52:34;26.40;99.30
32749;DHT22;19119;52.474;13.710;2023-09-12T07:55:01;26.60;97.20
32749;DHT22;19119;52.474;13.710;2023-09-12T07:57:28;26.80;98.50
32749;DHT22;19119;52.474;13.710;2023-09-12T07:59:54;27.00;99.10
32749;DHT22;19119;52.474;13.710;2023-09-12T08:02:19;27.30;97.60
32749;DHT22;19119;52.474;13.710;2023-09-12T08:04:45;27.40;96.90
32749;DHT22;19119;52.474;13.710;2023-09-12T08:07:10;27.30;96.50
32749;DHT22;19119;52.474;13.710;2023-09-12T08:09:55;27.60;96.10
32749;DHT22;19119;52.474;13.710;2023-09-12T08:12:23;27.80;96.00
32749;DHT22;19119;52.474;13.710;2023-09-12T08:14:49;27.80;96.40
32749;DHT22;19119;52.474;13.710;2023-09-12T08:17:15;28.00;96.60
32749;DHT22;19119;52.474;13.710;2023-09-12T08:19:41;28.40;96.50
32749;DHT22;19119;52.474;13.710;2023-09-12T08:22:07;28.70;95.40
32749;DHT22;19119;52.474;13.710;2023-09-12T08:24:34;28.80;96.10
32749;DHT22;19119;52.474;13.710;2023-09-12T08:27:00;28.90;96.80
32749;DHT22;19119;52.474;13.710;2023-09-12T08:29:25;29.20;95.10
32749;DHT22;19119;52.474;13.710;2023-09-12T08:31:51;29.30;94.80
32749;DHT22;19119;52.474;13.710;2023-09-12T08:34:17;29.40;94.10
32749;DHT22;19119;52.474;13.710;2023-09-12T08:36:43;29.80;94.50
32749;DHT22;19119;52.474;13.710;2023-09-12T08:39:12;30.10;94.90
32749;DHT22;19119;52.474;13.710;2023-09-12T08:41:38;30.10;94.50
32749;DHT22;19119;52.474;13.710;2023-09-12T08:44:04;30.30;93.80
32749;DHT22;19119;52.474;13.710;2023-09-12T08:46:31;30.50;94.10
32749;DHT22;19119;52.474;13.710;2023-09-12T08:48:58;30.00;93.40
32749;DHT22;19119;52.474;13.710;2023-09-12T08:51:24;30.30;93.50
32749;DHT22;19119;52.474;13.710;2023-09-12T08:53:50;30.50;93.50
32749;DHT22;19119;52.474;13.710;2023-09-12T08:56:17;30.70;93.10
32749;DHT22;19119;52.474;13.710;2023-09-12T08:58:43;30.60;92.10
32749;DHT22;19119;52.474;13.710;2023-09-12T09:01:13;30.70;93.30
32749;DHT22;19119;52.474;13.710;2023-09-12T09:03:41;30.70;92.40
32749;DHT22;19119;52.474;13.710;2023-09-12T09:06:09;31.00;91.50
32749;DHT22;19119;52.474;13.710;2023-09-12T09:08:36;31.30;92.20
32749;DHT22;19119;52.474;13.710;2023-09-12T09:11:02;31.50;92.30
32749;DHT22;19119;52.474;13.710;2023-09-12T09:13:28;31.80;91.00
32749;DHT22;19119;52.474;13.710;2023-09-12T09:16:16;31.90;90.40
32749;DHT22;19119;52.474;13.710;2023-09-12T09:18:59;32.20;90.30
32749;DHT22;19119;52.474;13.710;2023-09-12T09:21:28;32.00;91.20
32749;DHT22;19119;52.474;13.710;2023-09-12T09:23:57;32.20;91.10
32749;DHT22;19119;52.474;13.710;2023-09-12T09:26:23;32.10;90.70
32749;DHT22;19119;52.474;13.710;2023-09-12T09:29:08;32.50;91.10
32749;DHT22;19119;52.474;13.710;2023-09-12T09:31:34;32.50;90.50
32749;DHT22;19119;52.474;13.710;2023-09-12T09:34:00;32.50;92.10
32749;DHT22;19119;52.474;13.710;2023-09-12T09:36:29;32.60;90.70
32749;DHT22;19119;52.474;13.710;2023-09-12T09:38:57;32.90;90.80
32749;DHT22;19119;52.474;13.710;2023-09-12T09:41:24;33.30;91.20
32749;DHT22;19119;52.474;13.710;2023-09-12T09:43:52;33.30;91.00
32749;DHT22;19119;52.474;13.710;2023-09-12T09:46:18;33.40;90.20
32749;DHT22;19119;52.474;13.710;2023-09-12T09:48:49;33.70;89.30
32749;DHT22;19119;52.474;13.710;2023-09-12T09:51:15;33.20;89.90
32749;DHT22;19119;52.474;13.710;2023-09-12T09:53:41;33.60;89.40
32749;DHT22;19119;52.474;13.710;2023-09-12T09:56:13;33.50;90.70
32749;DHT22;19119;52.474;13.710;2023-09-12T09:58:48;33.60;90.10
32749;DHT22;19119;52.474;13.710;2023-09-12T10:01:35;33.90;89.50
32749;DHT22;19119;52.474;13.710;2023-09-12T10:04:01;34.10;88.90
32749;DHT22;19119;52.474;13.710;2023-09-12T10:06:28;34.10;87.20
32749;DHT22;19119;52.474;13.710;2023-09-12T10:08:55;34.30;88.30
32749;DHT22;19119;52.474;13.710;2023-09-12T10:11:23;34.00;88.50
32749;DHT22;19119;52.474;13.710;2023-09-12T10:13:53;34.00;87.70
32749;DHT22;19119;52.474;13.710;2023-09-12T10:16:23;34.20;88.00
32749;DHT22;19119;52.474;13.710;2023-09-12T10:19:22;34.30;87.40
32749;DHT22;19119;52.474;13.710;2023-09-12T10:24:27;33.80;87.80
32749;DHT22;19119;52.474;13.710;2023-09-12T10:26:53;33.50;86.70
32749;DHT22;19119;52.474;13.710;2023-09-12T10:29:20;33.40;86.60
32749;DHT22;19119;52.474;13.710;2023-09-12T10:31:48;33.60;88.80
32749;DHT22;19119;52.474;13.710;2023-09-12T10:34:14;33.40;87.70
32749;DHT22;19119;52.474;13.710;2023-09-12T10:36:41;33.30;88.70
32749;DHT22;19119;52.474;13.710;2023-09-12T10:39:09;33.40;88.10
32749;DHT22;19119;52.474;13.710;2023-09-12T10:41:38;32.90;88.10
32749;DHT22;19119;52.474;13.710;2023-09-12T10:44:12;33.10;87.60
32749;DHT22;19119;52.474;13.710;2023-09-12T10:46:40;33.50;86.80
32749;DHT22;19119;52.474;13.710;2023-09-12T10:49:10;32.90;86.60
32749;DHT22;19119;52.474;13.710;2023-09-12T10:51:38;33.00;88.40
32749;DHT22;19119;52.474;13.710;2023-09-12T10:54:05;32.80;87.50
32749;DHT22;19119;52.474;13.710;2023-09-12T10:56:31;32.30;88.10
32749;DHT22;19119;52.474;13.710;2023-09-12T11:01:30;32.70;89.00
32749;DHT22;19119;52.474;13.710;2023-09-12T11:03:56;33.20;89.50
32749;DHT22;19119;52.474;13.710;2023-09-12T11:06:29;33.60;88.40
32749;DHT22;19119;52.474;13.710;2023-09-12T11:11:39;33.20;87.70
32749;DHT22;19119;52.474;13.710;2023-09-12T11:14:06;33.40;88.10
32749;DHT22;19119;52.474;13.710;2023-09-12T11:16:33;33.50;89.20
32749;DHT22;19119;52.474;13.710;2023-09-12T11:19:13;33.20;88.70
32749;DHT22;19119;52.474;13.710;2023-09-12T11:21:43;33.40;89.70
32749;DHT22;19119;52.474;13.710;2023-09-12T11:24:09;33.80;89.30
32749;DHT22;19119;52.474;13.710;2023-09-12T11:26:36;33.40;89.90
32749;DHT22;19119;52.474;13.710;2023-09-12T11:29:16;33.00;88.90
32749;DHT22;19119;52.474;13.710;2023-09-12T11:31:52;33.80;89.10
32749;DHT22;19119;52.474;13.710;2023-09-12T11:34:18;33.20;87.30
32749;DHT22;19119;52.474;13.710;2023-09-12T11:36:46;34.00;90.10
32749;DHT22;19119;52.474;13.710;2023-09-12T11:39:25;34.20;87.20
32749;DHT22;19119;52.474;13.710;2023-09-12T11:41:54;34.80;87.30
32749;DHT22;19119;52.474;13.710;2023-09-12T11:44:20;34.40;86.30
32749;DHT22;19119;52.474;13.710;2023-09-12T11:46:48;34.80;87.00
32749;DHT22;19119;52.474;13.710;2023-09-12T11:49:17;34.70;85.40
32749;DHT22;19119;52.474;13.710;2023-09-12T11:51:51;34.60;86.60
32749;DHT22;19119;52.474;13.710;2023-09-12T11:54:24;33.20;85.70
32749;DHT22;19119;52.474;13.710;2023-09-12T11:56:50;34.30;85.50
32749;DHT22;19119;52.474;13.710;2023-09-12T11:59:22;35.00;85.60
32749;DHT22;19119;52.474;13.710;2023-09-12T12:01:48;35.00;84.40
32749;DHT22;19119;52.474;13.710;2023-09-12T12:04:14;35.20;83.90
32749;DHT22;19119;52.474;13.710;2023-09-12T12:06:40;35.40;84.10
32749;DHT22;19119;52.474;13.710;2023-09-12T12:09:07;35.10;84.70
32749;DHT22;19119;52.474;13.710;2023-09-12T12:11:32;34.70;85.00
32749;DHT22;19119;52.474;13.710;2023-09-12T12:13:58;34.40;85.20
32749;DHT22;19119;52.474;13.710;2023-09-12T12:16:33;34.30;85.50
32749;DHT22;19119;52.474;13.710;2023-09-12T12:18:59;34.40;85.40
32749;DHT22;19119;52.474;13.710;2023-09-12T12:21:25;34.10;87.60
32749;DHT22;19119;52.474;13.710;2023-09-12T12:24:03;34.20;86.50
32749;DHT22;19119;52.474;13.710;2023-09-12T12:26:30;34.40;86.20
32749;DHT22;19119;52.474;13.710;2023-09-12T12:28:56;35.00;86.60
32749;DHT22;19119;52.474;13.710;2023-09-12T12:31:22;35.20;84.00
32749;DHT22;19119;52.474;13.710;2023-09-12T12:33:52;35.00;83.20
32749;DHT22;19119;52.474;13.710;2023-09-12T12:36:18;35.50;84.80
32749;DHT22;19119;52.474;13.710;2023-09-12T12:38:46;36.00;82.90
32749;DHT22;19119;52.474;13.710;2023-09-12T12:41:12;36.50;82.00
32749;DHT22;19119;52.474;13.710;2023-09-12T12:43:41;36.80;82.90
32749;DHT22;19119;52.474;13.710;2023-09-12T12:46:11;37.30;82.90
32749;DHT22;19119;52.474;13.710;2023-09-12T12:48:43;37.30;82.10
32749;DHT22;19119;52.474;13.710;2023-09-12T12:51:23;36.40;80.50
32749;DHT22;19119;52.474;13.710;2023-09-12T12:54:03;36.20;81.30
32749;DHT22;19119;52.474;13.710;2023-09-12T12:56:29;36.80;81.30
32749;DHT22;19119;52.474;13.710;2023-09-12T12:58:57;36.90;79.30
32749;DHT22;19119;52.474;13.710;2023-09-12T13:01:23;35.80;81.00
32749;DHT22;19119;52.474;13.710;2023-09-12T13:03:49;35.70;80.60
32749;DHT22;19119;52.474;13.710;2023-09-12T13:06:19;36.70;80.40
32749;DHT22;19119;52.474;13.710;2023-09-12T13:08:46;37.00;81.00
32749;DHT22;19119;52.474;13.710;2023-09-12T13:11:14;37.70;81.60
32749;DHT22;19119;52.474;13.710;2023-09-12T13:13:40;38.10;80.80
32749;DHT22;19119;52.474;13.710;2023-09-12T13:16:08;38.60;81.10
32749;DHT22;19119;52.474;13.710;2023-09-12T13:18:37;38.70;79.30
32749;DHT22;19119;52.474;13.710;2023-09-12T13:21:04;38.70;78.90
32749;DHT22;19119;52.474;13.710;2023-09-12T13:23:30;38.30;80.30
32749;DHT22;19119;52.474;13.710;2023-09-12T13:25:56;37.80;80.00
32749;DHT22;19119;52.474;13.710;2023-09-12T13:28:23;38.10;81.00
32749;DHT22;19119;52.474;13.710;2023-09-12T13:30:53;38.50;81.30
32749;DHT22;19119;52.474;13.710;2023-09-12T13:33:19;39.00;80.10
32749;DHT22;19119;52.474;13.710;2023-09-12T13:35:45;38.80;79.90
32749;DHT22;19119;52.474;13.710;2023-09-12T13:38:10;38.70;79.60
32749;DHT22;19119;52.474;13.710;2023-09-12T13:40:40;38.00;80.00
32749;DHT22;19119;52.474;13.710;2023-09-12T13:43:06;37.80;80.60
32749;DHT22;19119;52.474;13.710;2023-09-12T13:45:32;37.60;80.40
32749;DHT22;19119;52.474;13.710;2023-09-12T13:48:04;36.40;81.20
32749;DHT22;19119;52.474;13.710;2023-09-12T13:50:30;35.40;81.80
32749;DHT22;19119;52.474;13.710;2023-09-12T13:52:58;34.70;82.30
32749;DHT22;19119;52.474;13.710;2023-09-12T13:55:25;34.40;82.50
32749;DHT22;19119;52.474;13.710;2023-09-12T13:57:50;34.00;85.00
32749;DHT22;19119;52.474;13.710;2023-09-12T14:00:16;34.00;84.90
32749;DHT22;19119;52.474;13.710;2023-09-12T14:02:41;34.00;85.90
32749;DHT22;19119;52.474;13.710;2023-09-12T14:05:07;33.60;84.50
32749;DHT22;19119;52.474;13.710;2023-09-12T14:07:32;33.90;86.10
32749;DHT22;19119;52.474;13.710;2023-09-12T14:09:58;33.90;85.10
32749;DHT22;19119;52.474;13.710;2023-09-12T14:12:24;33.90;83.90
32749;DHT22;19119;52.474;13.710;2023-09-12T14:14:51;33.60;85.30
32749;DHT22;19119;52.474;13.710;2023-09-12T14:17:17;33.30;85.80
32749;DHT22;19119;52.474;13.710;2023-09-12T14:19:43;33.40;84.50
32749;DHT22;19119;52.474;13.710;2023-09-12T14:22:10;33.40;85.70
32749;DHT22;19119;52.474;13.710;2023-09-12T14:24:35;33.00;85.10
32749;DHT22;19119;52.474;13.710;2023-09-12T14:27:00;33.00;86.00
32749;DHT22;19119;52.474;13.710;2023-09-12T14:29:26;32.20;85.40
32749;DHT22;19119;52.474;13.710;2023-09-12T14:31:55;32.50;85.70
32749;DHT22;19119;52.474;13.710;2023-09-12T14:34:26;32.20;85.30
32749;DHT22;19119;52.474;13.710;2023-09-12T14:36:55;32.40;86.30
32749;DHT22;19119;52.474;13.710;2023-09-12T14:39:22;31.90;88.20
32749;DHT22;19119;52.474;13.710;2023-09-12T14:41:48;32.10;87.10
32749;DHT22;19119;52.474;13.710;2023-09-12T14:44:24;32.30;86.80
32749;DHT22;19119;52.474;13.710;2023-09-12T14:46:49;32.50;85.30
32749;DHT22;19119;52.474;13.710;2023-09-12T14:49:15;32.30;86.40
32749;DHT22;19119;52.474;13.710;2023-09-12T14:51:41;32.80;86.20
32749;DHT22;19119;52.474;13.710;2023-09-12T14:54:06;32.90;85.50
32749;DHT22;19119;52.474;13.710;2023-09-12T14:56:33;33.00;88.50
32749;DHT22;19119;52.474;13.710;2023-09-12T14:58:59;32.60;86.40
32749;DHT22;19119;52.474;13.710;2023-09-12T15:01:25;32.80;86.30
32749;DHT22;19119;52.474;13.710;2023-09-12T15:03:52;32.60;85.60
32749;DHT22;19119;52.474;13.710;2023-09-12T15:06:17;32.50;87.50
32749;DHT22;19119;52.474;13.710;2023-09-12T15:08:44;32.40;87.10
32749;DHT22;19119;52.474;13.710;2023-09-12T15:11:10;32.50;87.30
32749;DHT22;19119;52.474;13.710;2023-09-12T15:13:36;32.40;88.20
32749;DHT22;19119;52.474;13.710;2023-09-12T15:16:02;32.10;87.80
32749;DHT22;19119;52.474;13.710;2023-09-12T15:18:28;31.90;87.40
32749;DHT22;19119;52.474;13.710;2023-09-12T15:20:54;31.60;88.30
32749;DHT22;19119;52.474;13.710;2023-09-12T15:23:19;31.20;89.20
32749;DHT22;19119;52.474;13.710;2023-09-12T15:25:50;31.20;88.40
32749;DHT22;19119;52.474;13.710;2023-09-12T15:28:16;31.00;89.10
32749;DHT22;19119;52.474;13.710;2023-09-12T15:30:42;31.10;90.20
32749;DHT22;19119;52.474;13.710;2023-09-12T15:33:08;31.00;89.10
32749;DHT22;19119;52.474;13.710;2023-09-12T15:35:33;31.00;90.00
32749;DHT22;19119;52.474;13.710;2023-09-12T15:37:59;31.00;89.30
32749;DHT22;19119;52.474;13.710;2023-09-12T15:40:24;31.00;88.80
32749;DHT22;19119;52.474;13.710;2023-09-12T15:42:50;31.00;88.40
32749;DHT22;19119;52.474;13.710;2023-09-12T15:45:15;30.70;90.00
32749;DHT22;19119;52.474;13.710;2023-09-12T15:47:43;30.30;91.30
32749;DHT22;19119;52.474;13.710;2023-09-12T15:50:12;29.60;92.10
32749;DHT22;19119;52.474;13.710;2023-09-12T15:52:38;29.30;92.40
32749;DHT22;19119;52.474;13.710;2023-09-12T15:55:05;28.80;92.80
32749;DHT22;19119;52.474;13.710;2023-09-12T15:57:31;28.60;93.10
32749;DHT22;19119;52.474;13.710;2023-09-12T15:59:56;28.30;93.40
32749;DHT22;19119;52.474;13.710;2023-09-12T16:02:22;28.10;93.80
32749;DHT22;19119;52.474;13.710;2023-09-12T16:04:47;27.90;93.50
32749;DHT22;19119;52.474;13.710;2023-09-12T16:07:12;27.90;93.80
32749;DHT22;19119;52.474;13.710;2023-09-12T16:09:38;27.80;94.10
32749;DHT22;19119;52.474;13.710;2023-09-12T16:12:04;27.60;94.10
32749;DHT22;19119;52.474;13.710;2023-09-12T16:14:29;27.60;94.50
32749;DHT22;19119;52.474;13.710;2023-09-12T16:16:58;27.60;94.50
32749;DHT22;19119;52.474;13.710;2023-09-12T16:19:24;27.50;94.40
32749;DHT22;19119;52.474;13.710;2023-09-12T16:21:49;27.40;94.60
32749;DHT22;19119;52.474;13.710;2023-09-12T16:24:15;27.50;94.00
32749;DHT22;19119;52.474;13.710;2023-09-12T16:26:40;27.30;94.00